PANI

Aniak Airport

Airport
ICAO code
PANI
Summary
ICAO Region
NAM
ICAO Territory
Location

Aniak,

Coordinates
61° 34' 53" N , 159° 32' 34" W
KCC
Airport BS
Bird Strike
Non Avian Wildlife Hazards to Aircraft
Airport CFIT
Altimeter Temperature Error Correction
Metar
PANI 160656Z AUTO 17019G28KT 10SM FEW060 OVC075 02/M02 A2999 RMK AO2 PK WND 17030/0618 SLP150 T00221022 FZRANO $

Description

Regional airport serving the town of Aniak, Alaska.

Climatology

Subarctic climate (Köppen climate classification Dfc) - long, usually very cold winters, and short, cool to mild summers.

Runways

Designator Length Width Surface Rops
05W/23W 914 122 WATER No/No
10/28 1829 46 ASPH-F Yes/Yes

Airport map

Aerial View

SKYbrary Partners:

Safety knowledge contributed by: